Time;durP1;ratioP1;P1;durP2;ratioP2;P2;SDS_P1;SDS_P2;PMS_P1;PMS_P2;Temp;Humidity;BMP_temperature;BMP_pressure;BME280_temperature;BME280_humidity;BME280_pressure;Samples;Min_cycle;Max_cycle;Signal;HPM_P1;HPM_P2
2021/10/25 00:00:15;;;;;;;16.70;10.98;;;;;;;5.34;100.00;96067.16;10465182;28;20029;-70
2021/10/25 00:05:16;;;;;;;27.63;11.40;;;;;;;5.31;100.00;96079.84;10482884;28;20017;-72
2021/10/25 00:10:17;;;;;;;15.88;8.02;;;;;;;5.29;100.00;96065.94;10465139;28;20021;-70
2021/10/25 00:15:18;;;;;;;19.35;11.45;;;;;;;5.19;100.00;96070.88;10481422;28;20065;-71
2021/10/25 00:20:18;;;;;;;16.30;10.35;;;;;;;5.13;100.00;96066.34;10464968;28;20071;-73
2021/10/25 00:25:19;;;;;;;15.05;10.50;;;;;;;5.12;100.00;96062.88;10482149;28;20107;-70
2021/10/25 00:30:19;;;;;;;11.43;6.53;;;;;;;5.15;100.00;96069.63;10447129;28;20059;-69
2021/10/25 00:35:21;;;;;;;16.05;10.10;;;;;;;5.17;100.00;96077.41;10463708;28;20302;-69
2021/10/25 00:40:23;;;;;;;14.18;5.90;;;;;;;5.17;100.00;96088.88;10463787;28;20058;-70
2021/10/25 00:45:23;;;;;;;20.10;18.13;;;;;;;5.05;100.00;96085.19;10447236;28;20033;-71
2021/10/25 00:50:24;;;;;;;14.98;12.20;;;;;;;4.97;100.00;96073.72;10440708;28;20020;-74
2021/10/25 00:55:25;;;;;;;21.27;19.10;;;;;;;4.72;100.00;96084.16;10440233;28;20037;-70
2021/10/25 01:00:26;;;;;;;19.10;15.13;;;;;;;4.56;100.00;96079.19;10438950;28;20471;-71
2021/10/25 01:05:27;;;;;;;13.32;8.50;;;;;;;4.50;100.00;96080.81;10441546;28;20021;-73
2021/10/25 01:10:28;;;;;;;26.08;23.50;;;;;;;4.47;100.00;96077.75;10435675;28;20513;-70
2021/10/25 01:15:29;;;;;;;25.05;22.92;;;;;;;4.42;100.00;96081.00;10453787;28;20021;-72
2021/10/25 01:20:31;;;;;;;26.98;23.70;;;;;;;4.40;100.00;96077.75;10452732;28;20040;-71
2021/10/25 01:25:32;;;;;;;33.25;30.48;;;;;;;4.37;100.00;96083.47;10435182;28;20061;-76
2021/10/25 01:30:32;;;;;;;75.20;70.43;;;;;;;4.37;100.00;96088.78;10435479;28;20139;-71
2021/10/25 01:35:33;;;;;;;127.35;119.88;;;;;;;4.39;100.00;96082.22;10453835;28;20712;-71
2021/10/25 01:40:33;;;;;;;154.95;146.15;;;;;;;4.39;100.00;96082.22;10451790;28;20574;-71
2021/10/25 01:45:34;;;;;;;252.23;237.05;;;;;;;4.36;100.00;96076.50;10451887;28;20067;-71
2021/10/25 01:50:34;;;;;;;35.15;31.92;;;;;;;4.33;100.00;96071.59;10451840;28;20028;-71
2021/10/25 01:55:35;;;;;;;10.00;6.28;;;;;;;4.34;100.00;96078.53;10452605;28;20477;-69
2021/10/25 02:00:35;;;;;;;19.02;8.43;;;;;;;4.30;100.00;96074.63;10453236;28;20383;-77
2021/10/25 02:05:36;;;;;;;18.23;16.05;;;;;;;4.13;100.00;96067.03;10451598;28;20025;-71
2021/10/25 02:10:36;;;;;;;36.05;32.92;;;;;;;3.96;100.00;96077.16;10434470;28;20434;-72
2021/10/25 02:15:37;;;;;;;143.57;135.18;;;;;;;3.81;100.00;96071.16;10434442;28;20487;-72
2021/10/25 02:20:39;;;;;;;16.45;9.60;;;;;;;3.82;100.00;96076.28;10445215;28;20029;-76
2021/10/25 02:25:40;;;;;;;147.80;139.80;;;;;;;3.85;100.00;96067.09;10444102;28;20115;-71
2021/10/25 02:30:40;;;;;;;195.80;184.27;;;;;;;3.91;100.00;96067.13;10445788;28;20054;-74
2021/10/25 02:35:41;;;;;;;154.73;145.95;;;;;;;3.96;100.00;96063.06;10427747;28;20594;-71
2021/10/25 02:40:42;;;;;;;109.20;103.07;;;;;;;4.03;100.00;96064.72;10443992;28;20510;-71
2021/10/25 02:45:43;;;;;;;397.17;370.52;;;;;;;4.03;100.00;96071.88;10444799;28;20032;-70
2021/10/25 02:50:43;;;;;;;122.70;116.20;;;;;;;4.02;100.00;96068.41;10443486;28;20031;-74
2021/10/25 02:55:44;;;;;;;259.27;243.52;;;;;;;4.02;100.00;96063.09;10426302;28;20079;-69
2021/10/25 03:00:44;;;;;;;393.00;366.38;;;;;;;4.09;100.00;96058.59;10443057;28;20029;-70
2021/10/25 03:05:44;;;;;;;371.63;346.70;;;;;;;4.13;100.00;96059.03;10444010;28;20103;-78
2021/10/25 03:10:45;;;;;;;204.15;192.75;;;;;;;4.12;100.00;96054.72;10443225;28;20029;-71
2021/10/25 03:15:46;;;;;;;455.45;419.27;;;;;;;4.13;100.00;96055.53;10443956;28;20047;-70
2021/10/25 03:20:46;;;;;;;402.05;373.73;;;;;;;4.15;100.00;96049.00;10442845;28;20032;-70
2021/10/25 03:25:47;;;;;;;432.48;401.20;;;;;;;4.18;100.00;96045.13;10429136;28;20057;-71
2021/10/25 03:30:47;;;;;;;11.90;6.72;;;;;;;4.25;100.00;96060.06;10412370;28;20397;-70
2021/10/25 03:35:48;;;;;;;378.33;352.27;;;;;;;4.30;100.00;96054.16;10417344;28;20492;-70
2021/10/25 03:40:51;;;;;;;419.60;390.02;;;;;;;4.38;100.00;96045.16;10440826;28;20025;-70
2021/10/25 03:45:58;;;;;;;505.38;463.75;;;;;;;4.47;100.00;96051.16;10442252;28;20163;-72
2021/10/25 03:50:58;;;;;;;531.35;486.33;;;;;;;4.52;100.00;96056.66;10442430;28;20120;-74
2021/10/25 03:56:14;;;;;;;541.10;489.73;;;;;;;4.47;100.00;96046.63;10442045;28;20192;-70
2021/10/25 04:32:49;;;;;;;516.03;472.30;;;;;;;4.55;100.00;96040.28;10480777;28;20028;-72
2021/10/25 04:37:49;;;;;;;585.58;523.42;;;;;;;4.64;100.00;96039.06;10463475;28;20020;-70
2021/10/25 04:42:50;;;;;;;520.27;472.23;;;;;;;4.49;100.00;96049.91;10478918;28;20020;-72
2021/10/25 04:47:54;;;;;;;576.60;480.52;;;;;;;4.46;100.00;96063.63;10459791;28;20283;-72
2021/10/25 04:52:55;;;;;;;17.77;10.00;;;;;;;4.26;100.00;96056.41;10449453;28;20378;-75
2021/10/25 04:57:56;;;;;;;19.33;10.88;;;;;;;4.31;100.00;96057.66;10447320;28;20456;-76
2021/10/25 05:02:58;;;;;;;207.85;184.57;;;;;;;4.30;100.00;96056.00;10462993;28;20116;-72
2021/10/25 05:07:59;;;;;;;27.08;8.32;;;;;;;4.27;100.00;96060.72;10438004;28;20106;-72
2021/10/25 05:13:00;;;;;;;15.13;7.20;;;;;;;4.21;100.00;96064.16;10437942;28;20020;-76
2021/10/25 05:18:00;;;;;;;12.88;8.15;;;;;;;4.21;100.00;96076.66;10437746;28;20021;-73
2021/10/25 05:23:01;;;;;;;18.17;8.48;;;;;;;4.25;100.00;96080.56;10437927;28;20025;-72
2021/10/25 05:28:02;;;;;;;15.30;9.40;;;;;;;4.40;100.00;96080.41;10404666;28;20084;-72
2021/10/25 05:33:03;;;;;;;19.02;9.02;;;;;;;4.55;100.00;96070.41;10421281;28;20032;-75
2021/10/25 05:38:03;;;;;;;13.68;7.68;;;;;;;4.72;100.00;96076.16;10420970;28;20032;-73
2021/10/25 05:43:04;;;;;;;12.03;7.23;;;;;;;4.92;100.00;96081.50;10437529;28;20395;-76
2021/10/25 05:48:05;;;;;;;18.52;7.88;;;;;;;5.03;100.00;96097.91;10459370;28;20340;-72
2021/10/25 05:53:06;;;;;;;9.00;6.18;;;;;;;5.18;100.00;96087.03;10440171;28;20104;-72
2021/10/25 05:58:12;;;;;;;18.55;7.45;;;;;;;5.33;100.00;96100.16;10453242;28;20029;-75
2021/10/25 06:03:17;;;;;;;11.18;6.53;;;;;;;5.30;100.00;96114.72;10469300;28;20112;-71
2021/10/25 06:08:18;;;;;;;15.73;7.53;;;;;;;5.32;100.00;96115.34;10469404;28;20778;-74
2021/10/25 06:13:55;;;;;;;9.77;5.63;;;;;;;5.40;100.00;96120.47;10469538;28;20025;-72
2021/10/25 06:18:45;;;;;;;10.60;6.85;;;;;;;5.46;100.00;96126.81;10483219;28;20060;-78
2021/10/25 06:23:47;;;;;;;13.27;6.65;;;;;;;5.54;100.00;96126.63;10467915;28;20111;-77
2021/10/25 06:28:48;;;;;;;9.48;5.95;;;;;;;5.65;100.00;96146.47;10468599;28;20045;-71
2021/10/25 06:33:49;;;;;;;11.48;6.25;;;;;;;5.69;100.00;96146.91;10468607;28;20103;-78
2021/10/25 06:43:50;;;;;;;10.38;4.75;;;;;;;5.85;100.00;96149.13;10485660;28;20086;-72
2021/10/25 06:48:50;;;;;;;10.82;5.05;;;;;;;5.90;100.00;96146.69;10467583;28;20550;-77
2021/10/25 06:53:51;;;;;;;6.05;5.05;;;;;;;6.14;100.00;96163.88;10467367;28;20027;-78
2021/10/25 06:58:53;;;;;;;14.97;6.60;;;;;;;6.38;100.00;96155.38;10468834;28;20473;-73
2021/10/25 07:03:54;;;;;;;8.38;4.85;;;;;;;6.64;100.00;96151.78;10484858;28;20676;-76
2021/10/25 07:08:56;;;;;;;9.60;5.60;;;;;;;6.89;100.00;96154.50;10465988;28;20225;-72
2021/10/25 07:13:56;;;;;;;12.73;5.78;;;;;;;7.31;100.00;96138.00;10467394;28;20020;-77
2021/10/25 08:12:00;;;;;;;9.48;4.68;;;;;;;7.85;100.00;96124.97;10482424;28;20398;-73
2021/10/25 08:17:01;;;;;;;8.70;4.75;;;;;;;8.09;100.00;96119.78;10464121;28;20020;-76
2021/10/25 08:22:11;;;;;;;6.68;3.70;;;;;;;8.09;100.00;96135.84;10464050;28;20406;-72
2021/10/25 08:27:13;;;;;;;8.90;3.92;;;;;;;8.15;100.00;96129.59;10463465;28;20040;-72
2021/10/25 08:32:29;;;;;;;7.38;3.58;;;;;;;8.61;99.37;96122.91;10467979;28;20063;-72
2021/10/25 08:42:36;;;;;;;10.38;3.53;;;;;;;10.21;82.97;96107.94;10463749;28;20029;-73
2021/10/25 08:47:46;;;;;;;6.63;3.60;;;;;;;10.34;75.00;96102.34;10463235;28;20028;-72
2021/10/25 08:52:48;;;;;;;5.60;2.92;;;;;;;10.19;73.81;96102.81;10464237;28;20028;-77
2021/10/25 08:57:49;;;;;;;10.20;4.05;;;;;;;11.09;69.34;96092.47;10463069;28;20478;-73
2021/10/25 09:02:58;;;;;;;6.07;3.00;;;;;;;11.78;61.19;96099.47;10463767;28;20490;-71
2021/10/25 09:08:07;;;;;;;8.50;3.15;;;;;;;12.31;58.88;96096.44;10463353;28;20036;-77
2021/10/25 09:13:08;;;;;;;6.88;2.72;;;;;;;12.01;55.41;96089.56;10463007;28;20043;-76
2021/10/25 09:18:14;;;;;;;3.63;2.38;;;;;;;12.49;53.74;96076.44;10456032;28;20032;-73
2021/10/25 09:23:18;;;;;;;5.85;2.95;;;;;;;13.71;49.95;96088.66;10438609;28;20470;-74
2021/10/25 09:28:25;;;;;;;3.85;2.42;;;;;;;14.02;45.56;96072.63;10426426;28;20501;-77
2021/10/25 09:33:35;;;;;;;3.97;2.10;;;;;;;16.40;40.59;96056.38;10447672;28;20052;-73
2021/10/25 09:39:06;;;;;;;3.88;2.10;;;;;;;18.86;36.52;96061.91;10446380;28;20032;-72
2021/10/25 09:49:35;;;;;;;4.70;1.35;;;;;;;19.71;31.35;96032.78;10488340;28;20028;-75
2021/10/25 09:54:35;;;;;;;7.13;1.85;;;;;;;19.38;31.69;96021.09;10470382;28;20024;-76
2021/10/25 09:59:54;;;;;;;3.15;1.20;;;;;;;21.15;30.46;96007.25;10469391;28;20028;-77
2021/10/25 10:05:03;;;;;;;2.80;1.40;;;;;;;22.69;28.39;96000.47;10469266;28;20033;-76
2021/10/25 10:10:10;;;;;;;3.95;1.70;;;;;;;21.41;29.99;95992.97;10468537;28;20028;-70
2021/10/25 10:15:13;;;;;;;3.87;1.70;;;;;;;21.72;29.46;95998.50;10469100;28;20025;-72
2021/10/25 10:20:18;;;;;;;6.30;1.73;;;;;;;21.51;29.27;95976.31;10468819;28;20083;-71
2021/10/25 10:25:50;;;;;;;3.20;1.50;;;;;;;22.42;28.14;95973.34;10486479;28;20023;-78
2021/10/25 10:30:56;;;;;;;4.63;1.50;;;;;;;21.28;29.05;95965.38;10468325;28;20098;-75
2021/10/25 10:36:08;;;;;;;3.15;1.33;;;;;;;21.52;28.43;95967.00;10490635;28;20461;-76
2021/10/25 10:41:09;;;;;;;7.35;1.48;;;;;;;19.93;30.08;95954.97;10485448;28;20058;-76
2021/10/25 10:46:14;;;;;;;2.30;1.47;;;;;;;21.39;28.57;95933.13;10467284;28;20391;-73
2021/10/25 10:51:16;;;;;;;2.15;1.20;;;;;;;22.64;26.99;95921.16;10436080;28;20787;-71
2021/10/25 11:01:56;;;;;;;2.47;1.60;;;;;;;21.42;28.03;95924.28;10356475;28;20038;-76
2021/10/25 11:07:03;;;;;;;4.38;1.50;;;;;;;21.91;26.91;95918.06;10454799;28;20490;-71
2021/10/25 11:12:08;;;;;;;1.73;1.10;;;;;;;22.81;25.88;95905.84;10466933;28;20044;-73
2021/10/25 11:22:10;;;;;;;4.43;1.83;;;;;;;19.74;28.89;95911.38;10484043;28;20032;-75
2021/10/25 11:27:10;;;;;;;2.07;1.57;;;;;;;19.66;29.30;95899.25;10440728;28;20496;-76
2021/10/25 11:32:12;;;;;;;4.90;1.83;;;;;;;17.54;31.33;95892.59;10424142;28;20333;-73
2021/10/25 11:37:21;;;;;;;4.38;1.73;;;;;;;15.37;34.74;95904.84;10441224;28;21106;-74
2021/10/25 11:42:24;;;;;;;8.80;2.55;;;;;;;14.18;37.77;95898.59;10441017;28;20078;-73
2021/10/25 11:47:28;;;;;;;7.72;2.60;;;;;;;12.41;41.04;95901.66;10424030;28;20125;-73
2021/10/25 11:52:43;;;;;;;22.13;20.15;;;;;;;11.53;42.68;95905.25;10439425;28;20108;-72
2021/10/25 11:57:46;;;;;;;4.63;2.55;;;;;;;10.93;44.27;95905.78;10441693;28;20403;-76
2021/10/25 12:02:47;;;;;;;6.65;2.08;;;;;;;11.13;46.04;95892.88;10440198;28;20032;-71
2021/10/25 12:07:49;;;;;;;4.70;1.95;;;;;;;11.18;46.17;95882.19;10439801;28;20039;-72
2021/10/25 12:13:01;;;;;;;3.05;1.65;;;;;;;10.94;46.69;95904.72;10422165;28;20470;-74
2021/10/25 12:18:06;;;;;;;4.43;2.35;;;;;;;10.74;48.82;95890.94;10399338;28;20029;-70
2021/10/25 12:23:14;;;;;;;6.32;2.53;;;;;;;10.88;47.77;95883.38;10414686;28;20029;-69
2021/10/25 12:28:20;;;;;;;3.85;2.20;;;;;;;11.02;45.71;95879.25;10435049;28;20045;-72
2021/10/25 12:33:24;;;;;;;2.72;2.15;;;;;;;10.75;45.07;95876.47;10440346;28;20063;-75
2021/10/25 12:38:25;;;;;;;3.50;2.13;;;;;;;10.92;45.53;95860.28;10422520;28;20113;-71
2021/10/25 12:43:25;;;;;;;3.65;2.53;;;;;;;11.02;46.57;95865.00;10438925;28;20028;-75
2021/10/25 12:48:26;;;;;;;3.65;2.25;;;;;;;10.97;47.62;95857.69;10421977;28;20120;-75
2021/10/25 12:53:31;;;;;;;3.35;1.73;;;;;;;10.77;47.71;95855.50;10439169;28;20033;-74
2021/10/25 12:58:31;;;;;;;4.80;2.35;;;;;;;10.86;48.91;95853.22;10421978;28;20115;-75
2021/10/25 13:03:32;;;;;;;5.20;1.77;;;;;;;10.97;49.49;95844.25;10438055;28;20024;-71
2021/10/25 13:08:32;;;;;;;7.40;3.67;;;;;;;10.82;47.83;95873.59;10439713;28;20028;-71
2021/10/25 13:13:33;;;;;;;7.35;2.25;;;;;;;10.62;48.52;95860.66;10437887;28;20041;-76
2021/10/25 13:18:33;;;;;;;3.95;2.40;;;;;;;10.71;48.65;95867.25;10439791;28;20468;-71
2021/10/25 13:23:36;;;;;;;7.07;2.40;;;;;;;10.77;48.77;95848.25;10439724;28;20025;-75
2021/10/25 13:28:36;;;;;;;4.93;1.80;;;;;;;10.62;47.26;95834.59;10421091;28;20411;-71
2021/10/25 13:33:40;;;;;;;3.55;2.08;;;;;;;10.73;47.86;95839.06;10404510;28;20029;-73
2021/10/25 13:38:41;;;;;;;10.13;2.45;;;;;;;10.77;47.46;95836.69;10437588;28;20057;-72
2021/10/25 13:43:42;;;;;;;6.32;2.42;;;;;;;10.70;45.42;95839.56;10404273;28;20044;-71
2021/10/25 13:48:42;;;;;;;5.72;2.42;;;;;;;10.67;45.45;95831.97;10437400;28;20032;-74
2021/10/25 13:53:43;;;;;;;7.70;2.13;;;;;;;10.59;46.21;95833.22;10437377;28;20036;-77
2021/10/25 13:58:43;;;;;;;3.85;2.25;;;;;;;10.48;46.50;95822.53;10438500;28;20041;-72
2021/10/25 14:03:45;;;;;;;6.55;2.55;;;;;;;10.40;47.22;95819.22;10436957;28;20033;-71
2021/10/25 14:08:48;;;;;;;3.72;2.50;;;;;;;10.34;46.44;95819.34;10420179;28;20048;-71
2021/10/25 14:18:49;;;;;;;8.02;2.45;;;;;;;10.32;48.22;95814.22;10445336;28;20033;-74
2021/10/25 14:23:50;;;;;;;7.25;2.58;;;;;;;10.04;47.71;95818.59;10427851;28;20079;-72
2021/10/25 14:28:50;;;;;;;5.55;2.65;;;;;;;9.87;48.88;95815.88;10443789;28;20094;-73
2021/10/25 14:33:51;;;;;;;7.77;2.97;;;;;;;9.82;50.04;95820.34;10443308;28;20033;-74
2021/10/25 14:44:23;;;;;;;8.90;2.53;;;;;;;9.53;51.41;95823.03;10444955;28;20064;-74
2021/10/25 14:54:35;;;;;;;3.95;1.90;;;;;;;9.12;54.74;95822.25;10444471;28;20033;-74
2021/10/25 14:59:36;;;;;;;6.50;2.38;;;;;;;8.99;57.50;95813.41;10425631;28;20033;-74
2021/10/25 15:04:37;;;;;;;5.17;2.87;;;;;;;8.92;60.40;95811.88;10442839;28;20395;-72
2021/10/25 15:09:37;;;;;;;3.58;2.65;;;;;;;8.86;63.29;95814.47;10443512;28;20279;-72
2021/10/25 15:14:41;;;;;;;6.63;3.10;;;;;;;8.77;63.87;95812.41;10443954;28;20029;-70
2021/10/25 15:19:42;;;;;;;5.20;3.03;;;;;;;8.68;64.74;95812.75;10451922;28;20093;-77
2021/10/25 15:24:48;;;;;;;5.65;2.85;;;;;;;8.59;68.24;95800.75;10437787;28;20145;-79
2021/10/25 15:29:52;;;;;;;9.45;3.00;;;;;;;8.55;68.13;95797.75;10439627;28;20053;-77
2021/10/25 15:34:53;;;;;;;7.68;3.35;;;;;;;8.48;70.32;95797.00;10448500;28;20734;-76
2021/10/25 15:39:55;;;;;;;7.50;2.97;;;;;;;8.33;76.32;95793.97;10447648;28;20032;-77
2021/10/25 15:44:57;;;;;;;13.43;3.92;;;;;;;8.22;79.62;95792.94;10464333;28;20027;-77
2021/10/25 15:49:59;;;;;;;6.40;3.47;;;;;;;8.15;82.58;95795.72;10463401;28;20036;-74
2021/10/25 15:55:00;;;;;;;6.85;4.10;;;;;;;8.07;85.12;95795.25;10481908;28;20477;-77
2021/10/25 16:00:00;;;;;;;5.75;3.45;;;;;;;7.95;87.41;95790.66;10464141;28;20020;-74
2021/10/25 16:05:01;;;;;;;9.80;4.50;;;;;;;7.92;92.15;95799.16;10464044;28;20032;-74
2021/10/25 16:10:02;;;;;;;7.90;4.50;;;;;;;7.78;97.25;95801.22;10446916;28;20105;-76
2021/10/25 16:15:04;;;;;;;10.98;5.75;;;;;;;7.48;100.00;95801.22;10438773;28;20059;-77
2021/10/25 16:20:06;;;;;;;7.25;4.47;;;;;;;7.39;100.00;95805.28;10439187;28;20111;-77
2021/10/25 16:25:08;;;;;;;16.08;5.90;;;;;;;7.32;100.00;95806.16;10439980;28;20032;-77
2021/10/25 16:30:11;;;;;;;16.35;6.88;;;;;;;7.31;100.00;95819.75;10438257;28;20049;-74
2021/10/25 16:35:13;;;;;;;10.52;6.95;;;;;;;7.26;100.00;95812.44;10439637;28;20025;-73
2021/10/25 16:40:13;;;;;;;13.23;6.80;;;;;;;7.29;100.00;95814.66;10437581;28;20055;-72
2021/10/25 16:45:13;;;;;;;11.27;6.40;;;;;;;7.28;100.00;95826.38;10437651;28;20449;-80
2021/10/25 16:50:16;;;;;;;14.55;5.93;;;;;;;7.16;100.00;95820.97;10436643;28;20021;-71
2021/10/25 17:11:03;;;;;;;9.00;6.25;;;;;;;7.03;100.00;95834.50;10444696;28;20600;-77
2021/10/25 17:16:03;;;;;;;9.90;6.25;;;;;;;6.82;100.00;95839.25;10444156;28;20533;-75
2021/10/25 17:21:11;;;;;;;13.45;6.90;;;;;;;6.68;100.00;95829.75;10460599;28;20035;-76
2021/10/25 17:26:12;;;;;;;14.25;6.85;;;;;;;6.50;100.00;95842.03;10461624;28;20033;-76
2021/10/25 17:31:13;;;;;;;14.48;7.00;;;;;;;6.39;100.00;95845.44;10461542;28;20028;-77
2021/10/25 17:36:14;;;;;;;14.50;6.75;;;;;;;6.32;100.00;95842.81;10461365;28;20473;-71
2021/10/25 17:41:18;;;;;;;14.95;6.68;;;;;;;6.26;100.00;95845.53;10461612;28;20121;-77
2021/10/25 17:46:18;;;;;;;11.90;6.20;;;;;;;6.12;100.00;95842.16;10461272;28;20024;-76
2021/10/25 17:51:19;;;;;;;13.18;6.28;;;;;;;6.09;100.00;95842.59;10466954;28;20036;-74
2021/10/25 17:56:20;;;;;;;14.82;6.85;;;;;;;6.14;100.00;95837.44;10469306;28;20032;-79
2021/10/25 18:01:22;;;;;;;14.68;6.38;;;;;;;6.04;100.00;95842.44;10486801;28;20502;-77
2021/10/25 18:06:27;;;;;;;11.30;6.13;;;;;;;5.98;100.00;95854.78;10467509;28;20020;-72
2021/10/25 18:11:39;;;;;;;11.05;5.95;;;;;;;5.96;100.00;95854.97;10468783;28;20390;-77
2021/10/25 18:16:41;;;;;;;12.52;4.90;;;;;;;6.01;100.00;95846.34;10485250;28;20047;-78
2021/10/25 18:21:44;;;;;;;18.58;6.00;;;;;;;5.97;100.00;95851.31;10468390;28;20111;-76
2021/10/25 18:26:45;;;;;;;11.68;5.40;;;;;;;6.02;100.00;95847.97;10468530;28;20041;-78
2021/10/25 18:31:45;;;;;;;10.50;5.53;;;;;;;6.08;100.00;95849.78;10485741;28;20047;-72
2021/10/25 18:36:46;;;;;;;12.40;5.18;;;;;;;6.07;100.00;95850.00;10441907;28;20049;-77
2021/10/25 18:41:47;;;;;;;12.45;5.72;;;;;;;6.02;100.00;95850.66;10427091;28;20031;-73
2021/10/25 18:46:47;;;;;;;8.13;4.45;;;;;;;6.05;100.00;95863.56;10443713;28;20031;-76
2021/10/25 18:51:48;;;;;;;8.82;4.95;;;;;;;5.89;100.00;95862.22;10426953;28;20398;-71
2021/10/25 18:56:49;;;;;;;10.33;5.50;;;;;;;5.90;100.00;95858.50;10443702;28;20196;-74
2021/10/25 19:01:49;;;;;;;13.82;6.50;;;;;;;5.85;100.00;95861.00;10441890;28;20276;-76
2021/10/25 19:06:49;;;;;;;15.38;6.68;;;;;;;5.70;100.00;95863.16;10443239;28;20029;-72
2021/10/25 19:11:50;;;;;;;16.37;6.40;;;;;;;5.68;100.00;95866.03;10456165;28;20029;-75
2021/10/25 19:16:51;;;;;;;14.98;6.57;;;;;;;5.57;100.00;95856.84;10484399;28;20843;-72
2021/10/25 19:21:51;;;;;;;11.15;5.63;;;;;;;5.52;100.00;95856.66;10467406;28;20470;-72
2021/10/25 19:26:52;;;;;;;6.32;3.47;;;;;;;5.41;100.00;95865.34;10484717;28;20128;-77
2021/10/25 19:31:52;;;;;;;12.27;5.93;;;;;;;5.36;100.00;95868.66;10465937;28;20119;-72
2021/10/25 19:36:54;;;;;;;12.27;6.85;;;;;;;5.27;100.00;95870.75;10449111;28;20036;-72
2021/10/25 19:41:57;;;;;;;14.38;6.20;;;;;;;5.15;100.00;95867.09;10483993;28;20025;-72
2021/10/25 19:46:58;;;;;;;12.43;5.97;;;;;;;5.10;100.00;95864.25;10448621;28;20036;-76
2021/10/25 19:51:59;;;;;;;13.68;5.80;;;;;;;4.96;100.00;95872.25;10465913;28;20028;-75
2021/10/25 19:57:02;;;;;;;16.50;7.47;;;;;;;4.86;100.00;95869.22;10465008;28;20072;-76
2021/10/25 20:02:04;;;;;;;11.48;6.53;;;;;;;4.86;100.00;95869.22;10464983;28;20414;-77
2021/10/25 20:07:05;;;;;;;9.43;6.28;;;;;;;4.84;100.00;95868.59;10464438;28;20032;-72
2021/10/25 20:12:06;;;;;;;9.32;5.78;;;;;;;4.86;100.00;95879.09;10446642;28;20566;-72
2021/10/25 20:17:08;;;;;;;11.38;6.13;;;;;;;4.81;100.00;95877.03;10482538;28;20149;-76
2021/10/25 20:22:08;;;;;;;24.20;20.70;;;;;;;4.76;100.00;95876.84;10464352;28;20119;-78
2021/10/25 20:27:09;;;;;;;9.65;5.15;;;;;;;4.65;100.00;95880.13;10463509;28;20040;-78
2021/10/25 20:32:10;;;;;;;7.97;5.13;;;;;;;4.66;100.00;95876.44;10464271;28;20094;-75
2021/10/25 20:37:11;;;;;;;11.05;5.90;;;;;;;4.59;100.00;95868.44;10463588;28;20475;-71
2021/10/25 20:42:11;;;;;;;9.38;4.97;;;;;;;4.57;100.00;95873.19;10463265;28;20085;-76
2021/10/25 20:47:12;;;;;;;11.07;5.70;;;;;;;4.53;100.00;95875.41;10463883;28;20490;-77
2021/10/25 20:52:12;;;;;;;13.02;5.93;;;;;;;4.53;100.00;95875.41;10479959;28;20029;-72
2021/10/25 20:57:13;;;;;;;12.27;6.15;;;;;;;4.43;100.00;95880.38;10445826;28;20024;-73
2021/10/25 21:02:14;;;;;;;17.42;7.38;;;;;;;4.31;100.00;95872.16;10463248;28;20032;-73
2021/10/25 21:07:14;;;;;;;12.75;6.30;;;;;;;4.30;100.00;95880.34;10462577;28;20032;-73
2021/10/25 21:12:14;;;;;;;12.90;6.60;;;;;;;4.35;100.00;95872.59;10445828;28;20481;-75
2021/10/25 21:17:15;;;;;;;13.05;5.00;;;;;;;4.44;100.00;95863.38;10463466;28;20064;-72
2021/10/25 21:22:19;;;;;;;20.63;15.77;;;;;;;4.42;100.00;95866.25;10463090;28;20021;-73
2021/10/25 21:27:19;;;;;;;6.07;3.63;;;;;;;4.53;100.00;95870.09;10470840;28;20048;-72
2021/10/25 21:32:19;;;;;;;13.77;5.23;;;;;;;4.54;100.00;95870.94;10471654;28;20032;-73
2021/10/25 21:37:20;;;;;;;9.63;4.35;;;;;;;4.55;100.00;95873.38;10489844;28;20270;-71
2021/10/25 21:42:20;;;;;;;8.45;4.85;;;;;;;4.58;100.00;95870.31;10472093;28;20143;-71
2021/10/25 21:47:21;;;;;;;7.68;5.05;;;;;;;4.53;100.00;95870.09;10471235;28;20037;-70
2021/10/25 21:52:21;;;;;;;7.05;4.20;;;;;;;4.62;100.00;95865.41;10470800;28;20556;-71
2021/10/25 21:57:22;;;;;;;12.48;5.35;;;;;;;4.57;100.00;95855.34;10471513;28;20107;-70
2021/10/25 22:02:22;;;;;;;12.52;6.95;;;;;;;4.51;100.00;95852.69;10470124;28;20029;-69
2021/10/25 22:07:23;;;;;;;10.82;6.80;;;;;;;4.42;100.00;95860.91;10490453;28;20028;-70
2021/10/25 22:12:23;;;;;;;12.60;6.65;;;;;;;4.42;100.00;95857.41;10471325;28;20613;-73
2021/10/25 22:17:24;;;;;;;11.68;6.18;;;;;;;4.38;100.00;95861.53;10488025;28;20032;-71
2021/10/25 22:22:24;;;;;;;10.85;5.65;;;;;;;4.30;100.00;95859.91;10469628;28;20497;-73
2021/10/25 22:27:25;;;;;;;10.93;6.32;;;;;;;4.18;100.00;95859.69;10469360;28;20036;-71
2021/10/25 22:32:26;;;;;;;17.98;14.20;;;;;;;4.22;100.00;95860.91;10469704;28;20086;-74
2021/10/25 22:37:26;;;;;;;13.70;6.95;;;;;;;4.27;100.00;95858.47;10451519;28;20020;-69
2021/10/25 22:42:27;;;;;;;17.40;6.13;;;;;;;4.28;100.00;95852.13;10487058;28;20032;-70
2021/10/25 22:47:27;;;;;;;18.38;6.20;;;;;;;4.21;100.00;95848.63;10469052;28;20752;-70
2021/10/25 22:52:28;;;;;;;13.82;5.55;;;;;;;4.24;100.00;95852.72;10468480;28;20024;-69
2021/10/25 22:57:28;;;;;;;14.32;6.22;;;;;;;4.09;100.00;95848.44;10468612;28;20044;-73
2021/10/25 23:02:29;;;;;;;16.05;6.28;;;;;;;3.99;100.00;95841.88;10486169;28;20451;-74
2021/10/25 23:07:30;;;;;;;15.00;6.50;;;;;;;3.81;100.00;95850.47;10467823;28;20025;-70
2021/10/25 23:12:30;;;;;;;14.43;6.90;;;;;;;3.84;100.00;95842.91;10485931;28;20024;-70
2021/10/25 23:17:31;;;;;;;13.23;6.40;;;;;;;3.62;100.00;95852.09;10486268;28;20414;-69
2021/10/25 23:22:32;;;;;;;33.42;30.73;;;;;;;3.73;100.00;95846.97;10467862;28;20031;-70
2021/10/25 23:27:32;;;;;;;9.00;5.18;;;;;;;3.71;100.00;95845.53;10467229;28;20044;-70
2021/10/25 23:32:33;;;;;;;10.10;5.65;;;;;;;3.67;100.00;95850.44;10467507;28;20031;-70
2021/10/25 23:37:34;;;;;;;13.10;5.72;;;;;;;3.73;100.00;95849.63;10484830;28;20036;-67
2021/10/25 23:42:34;;;;;;;7.80;5.90;;;;;;;3.76;100.00;95843.91;10450174;28;20025;-70
2021/10/25 23:47:35;;;;;;;13.20;6.95;;;;;;;3.67;100.00;95850.44;10485016;28;20494;-70
2021/10/25 23:52:35;;;;;;;10.45;6.35;;;;;;;3.56;100.00;95845.72;10466885;28;20017;-72
2021/10/25 23:57:37;;;;;;;12.57;7.72;;;;;;;3.51;100.00;95838.34;10466372;28;20048;-70
